createdAt,value
2023-03-18T00:01:04.120Z,21.67
2023-03-18T00:03:06.701Z,23.20
2023-03-18T00:05:09.639Z,22.05
2023-03-18T00:07:12.073Z,19.58
2023-03-18T00:09:14.484Z,13.75
2023-03-18T00:11:18.696Z,15.23
2023-03-18T00:13:20.425Z,13.23
2023-03-18T00:15:22.046Z,12.52
2023-03-18T00:17:23.944Z,11.05
2023-03-18T00:19:25.765Z,13.40
2023-03-18T00:21:28.147Z,13.40
2023-03-18T00:23:30.493Z,11.73
2023-03-18T00:25:32.881Z,11.25
2023-03-18T00:27:35.894Z,13.38
2023-03-18T00:29:37.816Z,11.45
2023-03-18T00:31:40.275Z,9.88
2023-03-18T00:33:46.022Z,9.65
2023-03-18T00:35:48.193Z,9.00
2023-03-18T00:37:49.904Z,9.57
2023-03-18T00:39:52.185Z,9.52
2023-03-18T00:41:57.295Z,9.20
2023-03-18T00:43:58.987Z,9.00
2023-03-18T00:46:01.130Z,10.35
2023-03-18T00:48:02.667Z,9.57
2023-03-18T00:50:06.229Z,10.43
2023-03-18T00:52:08.588Z,9.00
2023-03-18T00:54:13.641Z,9.88
2023-03-18T00:56:18.877Z,9.50
2023-03-18T00:58:20.371Z,9.45
2023-03-18T01:00:22.412Z,9.88
2023-03-18T01:02:24.939Z,9.52
2023-03-18T01:04:28.069Z,8.85
2023-03-18T01:06:32.541Z,9.63
2023-03-18T01:08:34.043Z,9.25
2023-03-18T01:10:35.638Z,9.23
2023-03-18T01:12:37.989Z,9.02
2023-03-18T01:14:41.681Z,10.20
2023-03-18T01:16:43.320Z,10.85
2023-03-18T01:18:45.645Z,10.95
2023-03-18T01:20:47.240Z,10.68
2023-03-18T01:22:49.018Z,9.80
2023-03-18T01:24:50.616Z,9.63
2023-03-18T01:26:52.235Z,9.05
2023-03-18T01:28:53.767Z,9.65
2023-03-18T01:30:55.921Z,9.60
2023-03-18T01:32:58.131Z,9.10
2023-03-18T01:35:00.122Z,10.25
2023-03-18T01:37:02.459Z,9.02
2023-03-18T01:39:06.371Z,8.77
2023-03-18T01:41:08.231Z,9.32
2023-03-18T01:43:28.198Z,9.25
2023-03-18T01:45:31.747Z,7.97
2023-03-18T01:47:33.464Z,18.02
2023-03-18T01:49:38.969Z,21.73
2023-03-18T01:51:43.572Z,13.23
2023-03-18T01:53:48.731Z,12.68
2023-03-18T01:55:52.202Z,12.48
2023-03-18T01:57:54.601Z,13.77
2023-03-18T01:59:57.519Z,16.48
2023-03-18T02:02:06.708Z,15.32
2023-03-18T02:04:10.565Z,11.95
2023-03-18T02:06:12.522Z,11.18
2023-03-18T02:08:14.104Z,10.80
2023-03-18T02:10:18.424Z,11.55
2023-03-18T02:12:30.175Z,13.43
2023-03-18T02:14:32.411Z,13.73
2023-03-18T02:16:41.728Z,13.23
2023-03-18T02:18:48.365Z,10.52
2023-03-18T02:21:08.485Z,9.98
2023-03-18T02:23:36.750Z,9.38
2023-03-18T02:25:44.067Z,6.75
2023-03-18T02:27:50.957Z,8.73
2023-03-18T02:29:57.011Z,8.88
2023-03-18T02:32:01.457Z,7.97
2023-03-18T02:34:05.647Z,7.80
2023-03-18T02:36:13.538Z,7.45
2023-03-18T02:38:15.108Z,7.85
2023-03-18T02:40:23.600Z,7.22
2023-03-18T02:42:30.656Z,7.80
2023-03-18T02:44:33.400Z,6.78
2023-03-18T02:46:37.656Z,8.20
2023-03-18T02:48:43.355Z,7.47
2023-03-18T02:50:45.609Z,6.93
2023-03-18T02:52:47.499Z,6.93
2023-03-18T02:54:49.099Z,6.68
2023-03-18T02:56:50.978Z,6.68
2023-03-18T02:58:53.139Z,7.60
2023-03-18T03:00:55.007Z,7.88
2023-03-18T03:02:57.066Z,8.70
2023-03-18T03:04:58.660Z,8.07
2023-03-18T03:07:01.577Z,7.95
2023-03-18T03:09:05.401Z,8.25
2023-03-18T03:11:08.565Z,9.25
2023-03-18T03:13:10.257Z,8.23
2023-03-18T03:15:11.981Z,6.90
2023-03-18T03:17:13.589Z,7.30
2023-03-18T03:19:15.780Z,11.30
2023-03-18T03:21:17.429Z,11.73
2023-03-18T03:23:18.974Z,9.15
2023-03-18T03:25:20.755Z,8.82
2023-03-18T03:27:22.645Z,9.35
2023-03-18T03:29:24.468Z,9.35
2023-03-18T03:31:27.455Z,8.48
2023-03-18T03:33:29.332Z,7.53
2023-03-18T03:35:31.946Z,7.57
2023-03-18T03:37:33.525Z,11.15
2023-03-18T03:39:35.131Z,9.73
2023-03-18T03:41:36.677Z,10.57
2023-03-18T03:43:40.427Z,9.55
2023-03-18T03:45:43.799Z,9.27
2023-03-18T03:47:49.218Z,7.45
2023-03-18T03:49:50.713Z,7.47
2023-03-18T03:51:52.246Z,7.72
2023-03-18T03:53:54.176Z,7.53
2023-03-18T03:55:58.944Z,7.15
2023-03-18T03:58:01.188Z,7.57
2023-03-18T04:00:07.388Z,7.70
2023-03-18T04:02:08.968Z,7.20
2023-03-18T04:04:10.943Z,7.45
2023-03-18T04:06:13.342Z,7.25
2023-03-18T04:08:14.913Z,6.47
2023-03-18T04:10:18.552Z,7.00
2023-03-18T04:12:20.323Z,9.75
2023-03-18T04:14:21.951Z,8.23
2023-03-18T04:16:23.555Z,7.85
2023-03-18T04:18:26.055Z,8.38
2023-03-18T04:20:27.604Z,8.90
2023-03-18T04:22:29.729Z,7.65
2023-03-18T04:24:31.607Z,7.68
2023-03-18T04:26:33.214Z,7.13
2023-03-18T04:28:35.250Z,7.15
2023-03-18T04:30:37.290Z,7.20
2023-03-18T04:32:38.920Z,6.45
2023-03-18T04:34:40.719Z,7.07
2023-03-18T04:36:42.261Z,7.20
2023-03-18T04:38:44.591Z,5.68
2023-03-18T04:40:46.368Z,6.55
2023-03-18T04:42:48.025Z,6.72
2023-03-18T04:44:49.594Z,6.65
2023-03-18T04:46:53.618Z,6.85
2023-03-18T04:48:55.262Z,6.38
2023-03-18T04:50:56.798Z,6.55
2023-03-18T04:52:58.555Z,6.97
2023-03-18T04:55:00.453Z,8.48
2023-03-18T04:57:02.433Z,8.00
2023-03-18T04:59:03.954Z,7.45
2023-03-18T05:01:05.547Z,8.63
2023-03-18T05:03:07.421Z,8.15
2023-03-18T05:05:09.762Z,8.23
2023-03-18T05:07:18.321Z,7.60
2023-03-18T05:09:19.907Z,7.03
2023-03-18T05:11:21.707Z,7.38
2023-03-18T05:13:24.149Z,6.95
2023-03-18T05:15:26.052Z,8.60
2023-03-18T05:17:28.780Z,9.90
2023-03-18T05:19:30.660Z,12.43
2023-03-18T05:21:32.210Z,10.95
2023-03-18T05:23:34.304Z,9.02
2023-03-18T05:25:36.202Z,8.70
2023-03-18T05:27:38.583Z,10.55
2023-03-18T05:29:41.897Z,11.02
2023-03-18T05:31:43.862Z,10.88
2023-03-18T05:33:51.410Z,9.35
2023-03-18T05:35:53.720Z,7.60
2023-03-18T05:37:55.504Z,8.57
2023-03-18T05:39:57.292Z,8.00
2023-03-18T05:41:59.726Z,7.93
2023-03-18T05:44:01.483Z,7.30
2023-03-18T05:46:05.628Z,9.25
2023-03-18T05:48:07.175Z,7.28
2023-03-18T05:50:10.706Z,7.75
2023-03-18T05:52:12.379Z,8.00
2023-03-18T05:54:14.253Z,8.07
2023-03-18T05:56:25.713Z,8.40
2023-03-18T05:58:31.691Z,23.55
2023-03-18T06:00:33.296Z,22.05
2023-03-18T06:02:34.773Z,15.93
2023-03-18T06:04:37.202Z,8.23
2023-03-18T06:06:40.587Z,8.98
2023-03-18T06:08:42.804Z,7.30
2023-03-18T06:10:44.363Z,5.82
2023-03-18T06:12:45.995Z,5.75
2023-03-18T06:14:47.542Z,6.72
2023-03-18T06:16:49.115Z,10.18
2023-03-18T06:18:51.017Z,6.40
2023-03-18T06:20:52.596Z,13.68
2023-03-18T06:22:54.364Z,9.88
2023-03-18T06:24:56.572Z,19.33
2023-03-18T06:26:58.257Z,13.60
2023-03-18T06:29:00.088Z,10.98
2023-03-18T06:31:02.917Z,11.05
2023-03-18T06:33:04.849Z,8.52
2023-03-18T06:35:07.100Z,8.45
2023-03-18T06:37:09.721Z,7.85
2023-03-18T06:39:11.264Z,6.70
2023-03-18T06:41:14.520Z,7.05
2023-03-18T06:43:16.121Z,3.67
2023-03-18T06:45:17.936Z,5.28
2023-03-18T06:47:22.007Z,8.30
2023-03-18T06:49:23.997Z,7.00
2023-03-18T06:51:25.800Z,6.80
2023-03-18T06:53:28.192Z,11.27
2023-03-18T06:55:29.721Z,16.27
2023-03-18T06:57:31.361Z,22.45
2023-03-18T06:59:33.118Z,25.23
2023-03-18T07:01:36.206Z,10.40
2023-03-18T07:03:38.924Z,10.38
2023-03-18T07:05:42.180Z,6.38
2023-03-18T07:07:44.244Z,10.30
2023-03-18T07:09:45.775Z,11.93
2023-03-18T07:11:47.541Z,11.60
2023-03-18T07:13:49.137Z,10.48
2023-03-18T07:15:51.052Z,8.20
2023-03-18T07:17:53.265Z,10.27
2023-03-18T07:19:54.802Z,9.32
2023-03-18T07:21:57.110Z,11.82
2023-03-18T07:23:58.830Z,7.38
2023-03-18T07:26:00.337Z,8.20
2023-03-18T07:28:01.944Z,9.18
2023-03-18T07:30:04.214Z,10.32
2023-03-18T07:32:06.362Z,10.90
2023-03-18T07:34:12.990Z,13.55
2023-03-18T07:36:15.368Z,12.07
2023-03-18T07:38:18.267Z,16.70
2023-03-18T07:40:19.954Z,7.40
2023-03-18T07:42:21.636Z,6.53
2023-03-18T07:44:23.942Z,7.05
2023-03-18T07:46:25.968Z,7.57
2023-03-18T07:48:27.535Z,6.63
2023-03-18T07:50:29.197Z,8.70
2023-03-18T07:52:31.159Z,7.85
2023-03-18T07:54:32.872Z,6.32
2023-03-18T07:56:34.772Z,7.60
2023-03-18T07:58:37.326Z,7.07
2023-03-18T08:00:38.961Z,7.90
2023-03-18T08:02:41.424Z,6.78
2023-03-18T08:04:44.177Z,9.73
2023-03-18T08:06:45.748Z,8.80
2023-03-18T08:08:47.264Z,5.88
2023-03-18T08:10:48.816Z,6.60
2023-03-18T08:12:53.409Z,6.90
2023-03-18T08:14:55.420Z,7.45
2023-03-18T08:16:58.370Z,12.60
2023-03-18T08:19:00.230Z,10.00
2023-03-18T08:21:01.898Z,7.40
2023-03-18T08:23:03.684Z,6.55
2023-03-18T08:25:05.614Z,6.40
2023-03-18T08:27:10.233Z,7.97
2023-03-18T08:29:11.802Z,6.40
2023-03-18T08:31:14.406Z,7.45
2023-03-18T08:33:16.073Z,8.35
2023-03-18T08:35:18.385Z,8.10
2023-03-18T08:37:20.630Z,7.53
2023-03-18T08:39:22.751Z,7.10
2023-03-18T08:41:25.737Z,9.50
2023-03-18T08:43:27.290Z,7.95
2023-03-18T08:45:28.779Z,8.10
2023-03-18T08:47:30.958Z,7.13
2023-03-18T08:49:32.831Z,7.25
2023-03-18T08:51:34.718Z,6.70
2023-03-18T08:53:37.336Z,7.50
2023-03-18T08:55:39.440Z,7.53
2023-03-18T08:57:41.096Z,7.43
2023-03-18T08:59:42.710Z,7.75
2023-03-18T09:01:44.247Z,7.28
2023-03-18T09:03:46.998Z,7.75
2023-03-18T09:05:49.337Z,7.38
2023-03-18T09:07:53.266Z,10.98
2023-03-18T09:09:57.888Z,8.75
2023-03-18T09:11:59.406Z,8.88
2023-03-18T09:14:01.200Z,9.57
2023-03-18T09:16:02.731Z,9.45
2023-03-18T09:18:11.551Z,8.02
2023-03-18T09:20:15.725Z,7.13
2023-03-18T09:22:26.531Z,8.20
2023-03-18T09:24:28.094Z,8.75
2023-03-18T09:26:29.662Z,7.93
2023-03-18T09:28:31.309Z,6.68
2023-03-18T09:30:33.814Z,7.28
2023-03-18T09:32:35.489Z,7.55
2023-03-18T09:34:37.647Z,7.70
2023-03-18T09:36:39.902Z,7.55
2023-03-18T09:38:42.579Z,7.32
2023-03-18T09:40:56.072Z,7.65
2023-03-18T09:43:46.561Z,7.82
2023-03-18T09:46:13.360Z,7.05
2023-03-18T09:48:45.987Z,6.60
2023-03-18T09:50:55.909Z,7.15
2023-03-18T09:55:25.724Z,7.97
2023-03-18T09:57:32.159Z,7.82
2023-03-18T09:59:45.186Z,7.45
2023-03-18T10:01:50.998Z,9.02
2023-03-18T10:04:23.355Z,8.30
2023-03-18T10:06:25.274Z,7.60
2023-03-18T10:08:54.878Z,7.65
2023-03-18T10:11:02.421Z,7.57
2023-03-18T10:13:33.656Z,7.43
2023-03-18T10:15:41.561Z,6.72
2023-03-18T10:18:11.869Z,8.18
2023-03-18T10:20:32.455Z,7.30
2023-03-18T10:22:54.926Z,7.93
2023-03-18T10:24:59.368Z,7.20
2023-03-18T10:27:16.348Z,7.60
2023-03-18T10:29:42.049Z,8.02
2023-03-18T10:31:59.013Z,8.05
2023-03-18T10:34:26.646Z,7.80
2023-03-18T10:36:33.925Z,6.70
2023-03-18T10:38:39.691Z,6.65
2023-03-18T10:40:42.976Z,8.07
2023-03-18T10:42:45.826Z,7.68
2023-03-18T10:44:48.104Z,7.18
2023-03-18T10:46:57.936Z,7.10
2023-03-18T10:52:00.303Z,7.80
2023-03-18T10:54:42.174Z,6.97
2023-03-18T10:56:43.866Z,8.02
2023-03-18T10:58:46.324Z,7.22
2023-03-18T11:00:48.034Z,7.50
2023-03-18T11:02:49.802Z,7.25
2023-03-18T11:05:11.530Z,7.68
2023-03-18T11:07:19.676Z,7.70
2023-03-18T11:09:31.648Z,7.00
2023-03-18T11:11:39.465Z,7.13
2023-03-18T11:13:56.222Z,7.20
2023-03-18T11:15:58.680Z,6.75
2023-03-18T11:18:02.649Z,7.85
2023-03-18T11:20:17.336Z,7.53
2023-03-18T11:22:23.158Z,6.60
2023-03-18T11:24:36.468Z,7.07
2023-03-18T11:26:56.452Z,6.97
2023-03-18T11:31:07.080Z,7.78
2023-03-18T11:33:11.835Z,7.10
2023-03-18T11:35:23.471Z,8.27
2023-03-18T11:37:41.354Z,8.15
2023-03-18T11:39:54.644Z,6.80
2023-03-18T11:42:04.054Z,7.93
2023-03-18T11:44:08.588Z,8.00
2023-03-18T11:46:11.950Z,7.85
2023-03-18T11:48:38.168Z,7.43
2023-03-18T11:50:52.768Z,7.53
2023-03-18T11:53:07.702Z,7.50
2023-03-18T11:55:22.053Z,6.88
2023-03-18T11:57:35.609Z,6.90
2023-03-18T11:59:43.290Z,7.00
2023-03-18T12:02:10.003Z,7.00
2023-03-18T12:04:35.942Z,6.82
2023-03-18T12:06:57.041Z,6.85
2023-03-18T12:09:22.854Z,5.95
2023-03-18T12:11:25.532Z,6.55
2023-03-18T12:13:49.600Z,6.65
2023-03-18T12:15:59.723Z,5.30
2023-03-18T12:18:30.737Z,6.63
2023-03-18T12:20:53.331Z,6.97
2023-03-18T12:23:11.243Z,6.40
2023-03-18T12:25:37.085Z,5.88
2023-03-18T12:27:50.900Z,6.57
2023-03-18T12:30:30.065Z,6.32
2023-03-18T12:33:07.025Z,6.30
2023-03-18T12:35:26.178Z,6.22
2023-03-18T12:37:39.791Z,7.25
2023-03-18T12:39:52.213Z,6.80
2023-03-18T12:42:06.576Z,6.20
2023-03-18T12:44:21.407Z,5.88
2023-03-18T12:46:34.342Z,5.82
2023-03-18T12:48:44.502Z,6.15
2023-03-18T12:50:51.882Z,5.75
2023-03-18T12:53:00.189Z,5.80
2023-03-18T12:55:16.937Z,6.07
2023-03-18T12:57:36.114Z,5.45
2023-03-18T12:59:57.732Z,6.75
2023-03-18T13:02:31.609Z,5.82
2023-03-18T13:04:36.407Z,5.68
2023-03-18T13:06:42.018Z,6.22
2023-03-18T13:08:46.412Z,7.43
2023-03-18T13:11:04.812Z,7.97
2023-03-18T13:13:09.582Z,6.38
2023-03-18T13:15:40.482Z,5.57
2023-03-18T13:17:44.787Z,6.30
2023-03-18T13:19:46.895Z,6.32
2023-03-18T13:22:32.147Z,7.07
2023-03-18T13:24:43.298Z,6.88
2023-03-18T13:27:15.921Z,9.25
2023-03-18T13:29:54.339Z,17.48
2023-03-18T13:31:59.001Z,7.47
2023-03-18T13:34:12.665Z,8.90
2023-03-18T13:36:23.631Z,7.57
2023-03-18T13:38:43.254Z,7.50
2023-03-18T13:40:57.251Z,6.45
2023-03-18T13:43:01.445Z,12.50
2023-03-18T13:45:13.178Z,8.30
2023-03-18T13:47:18.910Z,6.53
2023-03-18T13:49:26.931Z,5.85
2023-03-18T13:51:29.037Z,6.60
2023-03-18T13:53:40.613Z,6.70
2023-03-18T13:55:49.906Z,6.57
2023-03-18T13:58:19.712Z,6.32
2023-03-18T14:00:41.980Z,6.72
2023-03-18T14:02:48.103Z,5.90
2023-03-18T14:04:51.827Z,7.25
2023-03-18T14:06:56.524Z,5.70
2023-03-18T14:08:59.081Z,6.28
2023-03-18T14:11:26.112Z,6.25
2023-03-18T14:13:28.421Z,5.88
2023-03-18T14:15:39.156Z,6.18
2023-03-18T14:17:47.934Z,6.43
2023-03-18T14:19:54.145Z,5.85
2023-03-18T14:22:39.391Z,7.25
2023-03-18T14:24:41.003Z,7.10
2023-03-18T14:26:47.085Z,8.85
2023-03-18T14:29:22.420Z,8.45
2023-03-18T14:31:58.254Z,11.32
2023-03-18T14:34:04.264Z,5.28
2023-03-18T14:36:10.293Z,5.82
2023-03-18T14:38:18.912Z,7.20
2023-03-18T14:40:21.397Z,5.68
2023-03-18T14:42:23.288Z,6.47
2023-03-18T14:44:35.175Z,6.40
2023-03-18T14:46:50.342Z,8.02
2023-03-18T14:48:54.075Z,25.13
2023-03-18T14:51:08.286Z,7.15
2023-03-18T14:53:13.801Z,8.75
2023-03-18T14:55:19.592Z,9.40
2023-03-18T14:57:25.733Z,9.93
2023-03-18T14:59:27.406Z,11.32
2023-03-18T15:01:40.064Z,10.75
2023-03-18T15:03:48.930Z,21.27
2023-03-18T15:05:55.079Z,14.57
2023-03-18T15:07:57.285Z,26.27
2023-03-18T15:10:02.743Z,29.67
2023-03-18T15:12:27.274Z,27.27
2023-03-18T15:14:31.840Z,30.15
2023-03-18T15:16:33.478Z,21.67
2023-03-18T15:18:38.791Z,15.98
2023-03-18T15:20:40.790Z,23.30
2023-03-18T15:22:43.632Z,35.03
2023-03-18T15:24:46.123Z,17.92
2023-03-18T15:27:00.488Z,17.30
2023-03-18T15:29:43.791Z,6.90
2023-03-18T15:31:46.056Z,15.23
2023-03-18T15:33:47.794Z,18.23
2023-03-18T15:36:03.577Z,15.43
2023-03-18T15:38:19.611Z,149.05
2023-03-18T15:40:24.711Z,17.15
2023-03-18T15:42:28.941Z,59.65
2023-03-18T15:44:35.821Z,64.65
2023-03-18T15:46:37.345Z,64.43
2023-03-18T15:48:54.889Z,94.22
2023-03-18T15:51:02.532Z,61.15
2023-03-18T15:53:20.683Z,29.73
2023-03-18T15:55:29.444Z,43.47
2023-03-18T15:57:36.400Z,109.80
2023-03-18T15:59:38.241Z,70.88
2023-03-18T16:01:40.400Z,66.90
2023-03-18T16:03:43.221Z,80.43
2023-03-18T16:05:44.976Z,132.52
2023-03-18T16:07:48.084Z,106.97
2023-03-18T16:09:51.574Z,64.57
2023-03-18T16:12:02.733Z,45.20
2023-03-18T16:14:04.926Z,53.83
2023-03-18T16:16:09.724Z,167.70
2023-03-18T16:18:11.605Z,104.75
2023-03-18T16:20:18.500Z,17.67
2023-03-18T16:22:20.025Z,80.88
2023-03-18T16:24:21.994Z,68.15
2023-03-18T16:26:23.943Z,114.85
2023-03-18T16:28:28.117Z,115.50
2023-03-18T16:30:31.816Z,77.13
2023-03-18T16:32:33.542Z,96.13
2023-03-18T16:34:35.409Z,380.02
2023-03-18T16:36:37.038Z,146.70
2023-03-18T16:38:41.104Z,57.67
2023-03-18T16:40:43.887Z,143.32
2023-03-18T16:42:47.937Z,137.70
2023-03-18T16:44:49.670Z,213.82
2023-03-18T16:46:57.565Z,163.93
2023-03-18T16:48:59.994Z,345.55
2023-03-18T16:51:02.975Z,135.43
2023-03-18T16:53:31.720Z,501.90
2023-03-18T16:55:34.674Z,388.25
2023-03-18T16:57:36.477Z,302.15
2023-03-18T16:59:38.433Z,296.88
2023-03-18T17:01:43.987Z,193.82
2023-03-18T17:03:45.725Z,204.35
2023-03-18T17:05:50.641Z,53.83
2023-03-18T17:07:52.199Z,33.28
2023-03-18T17:09:53.730Z,40.45
2023-03-18T17:12:03.005Z,45.97
2023-03-18T17:14:04.647Z,38.67
2023-03-18T17:16:15.729Z,71.90
2023-03-18T17:18:20.574Z,149.50
2023-03-18T17:20:22.248Z,163.68
2023-03-18T17:22:27.715Z,188.82
2023-03-18T17:24:29.231Z,109.32
2023-03-18T17:26:30.946Z,72.65
2023-03-18T17:28:39.213Z,166.35
2023-03-18T17:30:41.445Z,179.40
2023-03-18T17:32:43.056Z,81.50
2023-03-18T17:34:49.778Z,148.00
2023-03-18T17:36:51.370Z,123.53
2023-03-18T17:38:58.568Z,90.50
2023-03-18T17:41:02.096Z,129.02
2023-03-18T17:43:04.003Z,111.03
2023-03-18T17:45:17.788Z,84.38
2023-03-18T17:47:19.725Z,73.18
2023-03-18T17:49:25.119Z,67.18
2023-03-18T17:51:27.495Z,60.33
2023-03-18T17:53:35.283Z,46.65
2023-03-18T17:55:37.913Z,85.28
2023-03-18T17:57:39.564Z,81.72
2023-03-18T17:59:41.426Z,32.80
2023-03-18T18:01:45.319Z,65.13
2023-03-18T18:03:47.920Z,274.65
2023-03-18T18:05:49.980Z,111.45
2023-03-18T18:07:51.622Z,168.38
2023-03-18T18:09:53.218Z,98.65
2023-03-18T18:11:54.798Z,136.40
2023-03-18T18:14:03.485Z,145.63
2023-03-18T18:16:05.931Z,123.32
2023-03-18T18:18:24.639Z,96.53
2023-03-18T18:20:26.474Z,125.90
2023-03-18T18:22:28.064Z,102.45
2023-03-18T18:24:31.592Z,94.15
2023-03-18T18:26:33.310Z,85.50
2023-03-18T18:28:37.121Z,91.65
2023-03-18T18:30:38.639Z,103.78
2023-03-18T18:32:40.700Z,67.57
2023-03-18T18:34:42.305Z,60.88
2023-03-18T18:36:45.091Z,61.28
2023-03-18T18:38:46.611Z,49.08
2023-03-18T18:40:49.641Z,131.13
2023-03-18T18:42:51.168Z,60.17
2023-03-18T18:44:52.780Z,60.67
2023-03-18T18:46:54.540Z,63.00
2023-03-18T18:48:56.628Z,29.38
2023-03-18T18:50:59.465Z,22.15
2023-03-18T18:53:02.547Z,29.63
2023-03-18T18:55:04.574Z,21.50
2023-03-18T18:57:11.001Z,24.98
2023-03-18T18:59:22.295Z,39.67
2023-03-18T19:01:24.153Z,38.25
2023-03-18T19:03:31.192Z,38.78
2023-03-18T19:05:33.138Z,42.80
2023-03-18T19:07:36.448Z,41.88
2023-03-18T19:09:45.568Z,43.72
2023-03-18T19:11:47.685Z,46.05
2023-03-18T19:13:49.234Z,41.28
2023-03-18T19:15:54.272Z,53.50
2023-03-18T19:17:56.504Z,39.03
2023-03-18T19:19:58.464Z,39.28
2023-03-18T19:22:00.449Z,244.25
2023-03-18T19:24:02.285Z,98.18
2023-03-18T19:26:05.314Z,76.45
2023-03-18T19:28:07.693Z,70.68
2023-03-18T19:30:21.025Z,75.65
2023-03-18T19:32:23.405Z,122.88
2023-03-18T19:34:25.248Z,132.82
2023-03-18T19:36:30.359Z,80.05
2023-03-18T19:38:34.814Z,79.68
2023-03-18T19:40:36.510Z,84.82
2023-03-18T19:42:38.234Z,79.75
2023-03-18T19:44:39.798Z,152.93
2023-03-18T19:46:41.829Z,98.10
2023-03-18T19:48:43.403Z,88.10
2023-03-18T19:50:46.286Z,89.00
2023-03-18T19:52:48.112Z,101.47
2023-03-18T19:54:50.402Z,122.88
2023-03-18T19:56:52.590Z,106.25
2023-03-18T19:58:58.175Z,120.47
2023-03-18T20:01:01.793Z,119.90
2023-03-18T20:03:04.672Z,104.53
2023-03-18T20:05:16.537Z,80.00
2023-03-18T20:07:20.491Z,47.22
2023-03-18T20:09:25.076Z,54.72
2023-03-18T20:11:26.620Z,103.97
2023-03-18T20:13:28.210Z,57.58
2023-03-18T20:15:29.936Z,74.05
2023-03-18T20:17:41.165Z,111.07
2023-03-18T20:19:42.744Z,76.90
2023-03-18T20:21:44.812Z,84.18
2023-03-18T20:23:46.457Z,54.45
2023-03-18T20:25:51.280Z,55.88
2023-03-18T20:27:56.389Z,71.68
2023-03-18T20:29:58.481Z,49.70
2023-03-18T20:32:00.172Z,34.42
2023-03-18T20:34:02.026Z,36.88
2023-03-18T20:36:03.792Z,116.30
2023-03-18T20:38:22.273Z,143.52
2023-03-18T20:40:31.349Z,124.50
2023-03-18T20:42:33.240Z,114.85
2023-03-18T20:44:34.785Z,121.35
2023-03-18T20:46:36.384Z,137.20
2023-03-18T20:48:38.471Z,108.97
2023-03-18T20:50:41.084Z,79.78
2023-03-18T20:52:44.305Z,62.53
2023-03-18T20:54:45.815Z,75.20
2023-03-18T20:56:47.527Z,85.82
2023-03-18T20:58:49.875Z,65.10
2023-03-18T21:00:52.911Z,71.03
2023-03-18T21:02:57.627Z,53.78
2023-03-18T21:05:01.089Z,49.17
2023-03-18T21:07:02.677Z,41.58
2023-03-18T21:09:04.838Z,43.47
2023-03-18T21:11:06.636Z,37.22
2023-03-18T21:13:18.093Z,24.52
2023-03-18T21:15:22.708Z,29.77
2023-03-18T21:17:27.338Z,21.23
2023-03-18T21:19:28.958Z,25.10
2023-03-18T21:21:34.999Z,21.08
2023-03-18T21:23:36.742Z,23.95
2023-03-18T21:25:38.350Z,21.17
2023-03-18T21:27:40.197Z,21.33
2023-03-18T21:29:42.093Z,21.30
2023-03-18T21:31:43.640Z,35.25
2023-03-18T21:33:46.591Z,28.55
2023-03-18T21:35:50.366Z,23.95
2023-03-18T21:37:53.132Z,20.80
2023-03-18T21:39:54.796Z,22.75
2023-03-18T21:41:57.024Z,19.73
2023-03-18T21:43:58.719Z,21.33
2023-03-18T21:46:01.799Z,28.48
2023-03-18T21:48:03.638Z,25.38
2023-03-18T21:50:05.591Z,20.88
2023-03-18T21:52:08.197Z,23.45
2023-03-18T21:54:17.808Z,21.02
2023-03-18T21:58:24.244Z,19.88
2023-03-18T22:00:25.934Z,29.73
2023-03-18T22:02:31.638Z,20.30
2023-03-18T22:04:33.165Z,19.23
2023-03-18T22:06:34.711Z,17.65
2023-03-18T22:08:36.433Z,18.02
2023-03-18T22:10:38.361Z,18.60
2023-03-18T22:12:39.923Z,20.33
2023-03-18T22:14:41.532Z,21.48
2023-03-18T22:16:43.141Z,21.85
2023-03-18T22:18:46.470Z,44.25
2023-03-18T22:20:50.544Z,48.47
2023-03-18T22:22:52.170Z,31.83
2023-03-18T22:24:54.082Z,18.42
2023-03-18T22:26:55.631Z,18.88
2023-03-18T22:28:57.165Z,18.10
2023-03-18T22:31:00.332Z,20.92
2023-03-18T22:33:05.598Z,19.65
2023-03-18T22:35:21.907Z,16.63
2023-03-18T22:37:25.270Z,17.15
2023-03-18T22:39:26.949Z,17.25
2023-03-18T22:41:31.705Z,19.10
2023-03-18T22:43:37.387Z,19.63
2023-03-18T22:45:40.735Z,17.00
2023-03-18T22:47:42.378Z,19.48
2023-03-18T22:49:44.088Z,24.95
2023-03-18T22:51:45.800Z,20.95
2023-03-18T22:53:50.683Z,21.83
2023-03-18T22:55:54.446Z,21.50
2023-03-18T22:57:56.086Z,23.77
2023-03-18T22:59:58.377Z,26.77
2023-03-18T23:02:00.453Z,28.10
2023-03-18T23:04:02.018Z,23.52
2023-03-18T23:06:04.126Z,29.42
2023-03-18T23:08:06.202Z,25.13
2023-03-18T23:10:09.880Z,24.77
2023-03-18T23:12:11.995Z,24.40
2023-03-18T23:14:13.542Z,23.95
2023-03-18T23:16:18.548Z,21.60
2023-03-18T23:18:20.592Z,25.83
2023-03-18T23:20:22.094Z,26.80
2023-03-18T23:22:27.432Z,28.05
2023-03-18T23:24:28.952Z,29.83
2023-03-18T23:26:30.727Z,31.02
2023-03-18T23:28:40.964Z,26.75
2023-03-18T23:30:51.487Z,23.98
2023-03-18T23:32:53.024Z,24.65
2023-03-18T23:34:54.684Z,24.73
2023-03-18T23:36:56.520Z,24.15
2023-03-18T23:38:58.165Z,26.15
2023-03-18T23:40:59.680Z,25.83
2023-03-18T23:43:01.528Z,25.15
2023-03-18T23:45:04.146Z,24.88
2023-03-18T23:47:06.958Z,22.63
2023-03-18T23:49:08.508Z,27.08
2023-03-18T23:51:10.067Z,26.15
2023-03-18T23:53:13.317Z,29.30
2023-03-18T23:55:32.635Z,29.15
2023-03-18T23:57:34.948Z,37.78
2023-03-18T23:59:37.371Z,26.27
